sensor_id;sensor_type;location;lat;lon;timestamp;pressure;altitude;pressure_sealevel;temperature;humidity
60258;BME280;46115;44.484;11.314;2023-03-15T00:02:48;99116.56;;;13.80;92.33
60258;BME280;46115;44.484;11.314;2023-03-15T00:06:50;99071.09;;;13.41;91.88
60258;BME280;46115;44.484;11.314;2023-03-15T00:10:54;99118.38;;;13.48;93.97
60258;BME280;46115;44.484;11.314;2023-03-15T00:14:57;99049.59;;;13.12;93.71
60258;BME280;46115;44.484;11.314;2023-03-15T00:18:59;99115.69;;;13.59;93.06
60258;BME280;46115;44.484;11.314;2023-03-15T00:23:01;99112.94;;;13.49;93.65
60258;BME280;46115;44.484;11.314;2023-03-15T00:27:05;99110.66;;;13.56;92.40
60258;BME280;46115;44.484;11.314;2023-03-15T00:31:18;99139.97;;;13.54;92.58
60258;BME280;46115;44.484;11.314;2023-03-15T00:35:21;99112.53;;;13.33;93.16
60258;BME280;46115;44.484;11.314;2023-03-15T00:39:24;99155.72;;;13.67;93.59
60258;BME280;46115;44.484;11.314;2023-03-15T00:43:28;99162.66;;;13.90;91.87
60258;BME280;46115;44.484;11.314;2023-03-15T00:47:30;99054.34;;;12.98;93.46
60258;BME280;46115;44.484;11.314;2023-03-15T00:51:33;99169.13;;;13.65;93.74
60258;BME280;46115;44.484;11.314;2023-03-15T00:55:37;99178.06;;;13.64;93.40
60258;BME280;46115;44.484;11.314;2023-03-15T00:59:40;99171.13;;;13.41;95.66
60258;BME280;46115;44.484;11.314;2023-03-15T01:03:44;99190.75;;;13.50;95.34
60258;BME280;46115;44.484;11.314;2023-03-15T01:07:47;99190.50;;;13.53;95.42
60258;BME280;46115;44.484;11.314;2023-03-15T01:11:50;99179.09;;;13.41;94.92
60258;BME280;46115;44.484;11.314;2023-03-15T01:15:54;99208.78;;;13.35;94.78
60258;BME280;46115;44.484;11.314;2023-03-15T01:19:57;99218.66;;;13.55;93.38
60258;BME280;46115;44.484;11.314;2023-03-15T01:23:59;99175.00;;;13.15;94.16
60258;BME280;46115;44.484;11.314;2023-03-15T01:28:01;99231.81;;;13.34;93.93
60258;BME280;46115;44.484;11.314;2023-03-15T01:32:05;99159.34;;;12.67;94.56
60258;BME280;46115;44.484;11.314;2023-03-15T01:36:10;99230.63;;;13.27;93.57
60258;BME280;46115;44.484;11.314;2023-03-15T01:40:13;99210.34;;;12.93;94.72
60258;BME280;46115;44.484;11.314;2023-03-15T01:44:19;99231.56;;;13.15;93.18
60258;BME280;46115;44.484;11.314;2023-03-15T01:48:27;99235.78;;;13.06;93.00
60258;BME280;46115;44.484;11.314;2023-03-15T01:52:34;99206.50;;;12.97;90.59
60258;BME280;46115;44.484;11.314;2023-03-15T01:56:40;99219.03;;;13.06;90.98
60258;BME280;46115;44.484;11.314;2023-03-15T02:00:45;99187.66;;;12.77;89.13
60258;BME280;46115;44.484;11.314;2023-03-15T02:04:55;99236.88;;;13.04;90.27
60258;BME280;46115;44.484;11.314;2023-03-15T02:09:01;99241.50;;;13.24;89.94
60258;BME280;46115;44.484;11.314;2023-03-15T02:13:09;99252.91;;;13.13;89.98
60258;BME280;46115;44.484;11.314;2023-03-15T02:17:13;99259.28;;;13.11;91.19
60258;BME280;46115;44.484;11.314;2023-03-15T02:21:30;99254.22;;;13.08;91.42
60258;BME280;46115;44.484;11.314;2023-03-15T02:25:42;99177.28;;;12.41;93.14
60258;BME280;46115;44.484;11.314;2023-03-15T02:29:49;99265.81;;;12.96;92.23
60258;BME280;46115;44.484;11.314;2023-03-15T02:33:55;99264.59;;;13.11;91.52
60258;BME280;46115;44.484;11.314;2023-03-15T02:37:57;99278.00;;;13.09;90.14
60258;BME280;46115;44.484;11.314;2023-03-15T02:41:59;99274.00;;;13.04;91.92
60258;BME280;46115;44.484;11.314;2023-03-15T02:46:04;99246.97;;;12.76;91.00
60258;BME280;46115;44.484;11.314;2023-03-15T02:50:08;99228.16;;;12.68;90.87
60258;BME280;46115;44.484;11.314;2023-03-15T02:54:10;99289.81;;;13.17;90.33
60258;BME280;46115;44.484;11.314;2023-03-15T02:58:12;99302.47;;;13.02;91.45
60258;BME280;46115;44.484;11.314;2023-03-15T03:02:18;99307.28;;;12.97;92.75
60258;BME280;46115;44.484;11.314;2023-03-15T03:06:20;99306.09;;;13.01;93.26
60258;BME280;46115;44.484;11.314;2023-03-15T03:10:23;99304.34;;;12.77;94.53
60258;BME280;46115;44.484;11.314;2023-03-15T03:14:29;99225.59;;;12.44;92.21
60258;BME280;46115;44.484;11.314;2023-03-15T03:18:34;99332.59;;;13.01;92.58
60258;BME280;46115;44.484;11.314;2023-03-15T03:22:38;99265.44;;;12.32;92.87
60258;BME280;46115;44.484;11.314;2023-03-15T03:26:41;99263.88;;;12.40;93.81
60258;BME280;46115;44.484;11.314;2023-03-15T03:30:46;99348.66;;;12.99;91.84
60258;BME280;46115;44.484;11.314;2023-03-15T03:34:51;99262.53;;;12.81;89.90
60258;BME280;46115;44.484;11.314;2023-03-15T03:38:56;99346.59;;;12.92;89.74
60258;BME280;46115;44.484;11.314;2023-03-15T03:43:00;99285.69;;;12.44;89.38
60258;BME280;46115;44.484;11.314;2023-03-15T03:47:04;99330.84;;;12.77;87.71
60258;BME280;46115;44.484;11.314;2023-03-15T03:51:08;99336.50;;;12.73;87.26
60258;BME280;46115;44.484;11.314;2023-03-15T03:55:11;99374.41;;;12.86;85.61
60258;BME280;46115;44.484;11.314;2023-03-15T03:59:15;99300.19;;;12.51;84.04
60258;BME280;46115;44.484;11.314;2023-03-15T04:03:30;99266.84;;;12.25;82.56
60258;BME280;46115;44.484;11.314;2023-03-15T04:07:41;99358.09;;;12.79;81.07
60258;BME280;46115;44.484;11.314;2023-03-15T04:11:45;99336.72;;;12.59;81.21
60258;BME280;46115;44.484;11.314;2023-03-15T04:15:50;99275.50;;;12.15;78.28
60258;BME280;46115;44.484;11.314;2023-03-15T04:19:58;99353.53;;;12.46;77.91
60258;BME280;46115;44.484;11.314;2023-03-15T04:24:07;99278.91;;;11.68;78.65
60258;BME280;46115;44.484;11.314;2023-03-15T04:28:28;99274.38;;;11.83;77.88
60258;BME280;46115;44.484;11.314;2023-03-15T04:32:50;99302.06;;;11.90;77.07
60258;BME280;46115;44.484;11.314;2023-03-15T04:37:17;99329.13;;;11.82;79.80
60258;BME280;46115;44.484;11.314;2023-03-15T04:41:44;99361.72;;;11.83;78.98
60258;BME280;46115;44.484;11.314;2023-03-15T04:46:08;99363.19;;;11.87;79.96
60258;BME280;46115;44.484;11.314;2023-03-15T04:50:20;99319.34;;;11.70;78.57
60258;BME280;46115;44.484;11.314;2023-03-15T04:54:43;99283.84;;;11.49;76.83
60258;BME280;46115;44.484;11.314;2023-03-15T04:59:02;99395.78;;;12.00;75.13
60258;BME280;46115;44.484;11.314;2023-03-15T05:03:04;99323.06;;;11.68;74.82
60258;BME280;46115;44.484;11.314;2023-03-15T05:07:27;99399.63;;;11.96;71.12
60258;BME280;46115;44.484;11.314;2023-03-15T05:12:05;99362.59;;;11.83;72.12
60258;BME280;46115;44.484;11.314;2023-03-15T05:16:29;99326.69;;;11.67;72.41
60258;BME280;46115;44.484;11.314;2023-03-15T05:20:45;99322.00;;;11.70;68.63
60258;BME280;46115;44.484;11.314;2023-03-15T05:24:50;99323.84;;;11.57;68.18
60258;BME280;46115;44.484;11.314;2023-03-15T05:29:06;99391.63;;;12.09;68.47
60258;BME280;46115;44.484;11.314;2023-03-15T05:33:28;99323.19;;;11.66;67.41
60258;BME280;46115;44.484;11.314;2023-03-15T05:37:49;99403.94;;;11.97;68.23
60258;BME280;46115;44.484;11.314;2023-03-15T05:42:10;99412.34;;;11.91;62.85
60258;BME280;46115;44.484;11.314;2023-03-15T05:46:45;99414.09;;;12.16;63.05
60258;BME280;46115;44.484;11.314;2023-03-15T05:51:11;99433.13;;;12.21;60.53
60258;BME280;46115;44.484;11.314;2023-03-15T05:55:41;99428.81;;;12.07;59.78
60258;BME280;46115;44.484;11.314;2023-03-15T05:59:49;99435.63;;;11.99;63.06
60258;BME280;46115;44.484;11.314;2023-03-15T06:04:14;99441.53;;;11.77;65.44
60258;BME280;46115;44.484;11.314;2023-03-15T06:08:18;99448.44;;;11.79;62.46
60258;BME280;46115;44.484;11.314;2023-03-15T06:12:24;99460.22;;;11.88;61.83
60258;BME280;46115;44.484;11.314;2023-03-15T06:16:27;99461.69;;;11.67;62.19
60258;BME280;46115;44.484;11.314;2023-03-15T06:20:32;99459.47;;;11.61;63.29
60258;BME280;46115;44.484;11.314;2023-03-15T06:24:42;99478.94;;;11.60;64.41
60258;BME280;46115;44.484;11.314;2023-03-15T06:28:45;99477.47;;;11.55;66.41
60258;BME280;46115;44.484;11.314;2023-03-15T06:32:48;99489.63;;;11.58;65.80
60258;BME280;46115;44.484;11.314;2023-03-15T06:36:50;99494.47;;;12.28;58.15
60258;BME280;46115;44.484;11.314;2023-03-15T06:40:54;99503.00;;;12.44;66.40
60258;BME280;46115;44.484;11.314;2023-03-15T06:44:58;99514.28;;;12.35;62.24
60258;BME280;46115;44.484;11.314;2023-03-15T06:49:01;99516.63;;;12.27;62.58
60258;BME280;46115;44.484;11.314;2023-03-15T06:53:04;99525.75;;;12.23;57.85
60258;BME280;46115;44.484;11.314;2023-03-15T06:57:08;99536.97;;;12.75;58.01
60258;BME280;46115;44.484;11.314;2023-03-15T07:01:11;99539.16;;;12.81;55.86
60258;BME280;46115;44.484;11.314;2023-03-15T07:05:13;99538.75;;;13.82;49.74
60258;BME280;46115;44.484;11.314;2023-03-15T07:09:16;99545.81;;;13.59;46.68
60258;BME280;46115;44.484;11.314;2023-03-15T07:13:20;99551.88;;;13.61;44.24
60258;BME280;46115;44.484;11.314;2023-03-15T07:17:22;99558.78;;;13.39;46.79
60258;BME280;46115;44.484;11.314;2023-03-15T07:21:24;99568.44;;;13.87;47.21
60258;BME280;46115;44.484;11.314;2023-03-15T07:25:27;99562.34;;;14.09;44.46
60258;BME280;46115;44.484;11.314;2023-03-15T07:29:31;99580.59;;;15.35;42.25
60258;BME280;46115;44.484;11.314;2023-03-15T07:33:33;99585.28;;;15.74;41.05
60258;BME280;46115;44.484;11.314;2023-03-15T07:37:36;99556.47;;;16.10;39.42
60258;BME280;46115;44.484;11.314;2023-03-15T07:41:38;99596.56;;;16.60;38.30
60258;BME280;46115;44.484;11.314;2023-03-15T07:45:58;99584.91;;;15.79;37.68
60258;BME280;46115;44.484;11.314;2023-03-15T07:50:01;99605.03;;;15.93;36.79
60258;BME280;46115;44.484;11.314;2023-03-15T07:54:04;99609.47;;;16.03;36.94
60258;BME280;46115;44.484;11.314;2023-03-15T07:58:06;99606.38;;;15.23;37.66
60258;BME280;46115;44.484;11.314;2023-03-15T08:02:11;99616.75;;;14.83;38.39
60258;BME280;46115;44.484;11.314;2023-03-15T08:06:14;99627.53;;;14.81;38.79
60258;BME280;46115;44.484;11.314;2023-03-15T08:10:16;99633.13;;;14.21;39.99
60258;BME280;46115;44.484;11.314;2023-03-15T08:14:19;99599.00;;;13.46;43.49
60258;BME280;46115;44.484;11.314;2023-03-15T08:18:23;99636.66;;;13.15;47.61
60258;BME280;46115;44.484;11.314;2023-03-15T08:22:25;99651.91;;;13.00;45.58
60258;BME280;46115;44.484;11.314;2023-03-15T08:26:27;99663.44;;;13.11;48.16
60258;BME280;46115;44.484;11.314;2023-03-15T08:30:29;99666.28;;;12.85;50.30
60258;BME280;46115;44.484;11.314;2023-03-15T08:34:33;99665.50;;;12.82;49.52
60258;BME280;46115;44.484;11.314;2023-03-15T08:38:36;99668.06;;;12.71;48.22
60258;BME280;46115;44.484;11.314;2023-03-15T08:42:38;99685.56;;;12.74;50.20
60258;BME280;46115;44.484;11.314;2023-03-15T08:46:40;99692.44;;;13.02;49.66
60258;BME280;46115;44.484;11.314;2023-03-15T08:50:44;99678.75;;;12.82;47.73
60258;BME280;46115;44.484;11.314;2023-03-15T08:54:47;99699.53;;;13.27;48.27
60258;BME280;46115;44.484;11.314;2023-03-15T08:58:49;99714.94;;;15.96;43.31
60258;BME280;46115;44.484;11.314;2023-03-15T09:02:52;99726.59;;;16.78;43.52
60258;BME280;46115;44.484;11.314;2023-03-15T09:06:55;99731.41;;;14.33;45.29
60258;BME280;46115;44.484;11.314;2023-03-15T09:10:58;99742.84;;;13.88;47.20
60258;BME280;46115;44.484;11.314;2023-03-15T09:15:01;99747.94;;;15.73;43.86
60258;BME280;46115;44.484;11.314;2023-03-15T09:19:03;99763.03;;;16.89;40.05
60258;BME280;46115;44.484;11.314;2023-03-15T09:23:07;99767.66;;;18.65;41.11
60258;BME280;46115;44.484;11.314;2023-03-15T09:27:10;99760.16;;;15.75;41.48
60258;BME280;46115;44.484;11.314;2023-03-15T09:31:12;99775.31;;;16.60;42.44
60258;BME280;46115;44.484;11.314;2023-03-15T09:35:17;99771.72;;;17.92;39.90
60258;BME280;46115;44.484;11.314;2023-03-15T09:39:21;99777.66;;;18.73;38.37
60258;BME280;46115;44.484;11.314;2023-03-15T09:43:47;99767.47;;;15.62;47.33
60258;BME280;46115;44.484;11.314;2023-03-15T09:47:59;99779.56;;;21.75;34.25
60258;BME280;46115;44.484;11.314;2023-03-15T09:52:14;99785.03;;;23.29;27.27
60258;BME280;46115;44.484;11.314;2023-03-15T09:56:27;99793.34;;;25.57;24.60
60258;BME280;46115;44.484;11.314;2023-03-15T10:00:36;99780.19;;;24.03;26.54
60258;BME280;46115;44.484;11.314;2023-03-15T10:04:42;99789.50;;;22.33;30.61
60258;BME280;46115;44.484;11.314;2023-03-15T10:08:46;99759.38;;;19.43;34.09
60258;BME280;46115;44.484;11.314;2023-03-15T10:12:56;99777.38;;;18.76;35.71
60258;BME280;46115;44.484;11.314;2023-03-15T10:17:02;99802.44;;;18.36;36.71
60258;BME280;46115;44.484;11.314;2023-03-15T10:21:11;99813.69;;;17.31;36.97
60258;BME280;46115;44.484;11.314;2023-03-15T10:25:16;99797.47;;;17.43;37.85
60258;BME280;46115;44.484;11.314;2023-03-15T10:29:22;99811.78;;;17.12;39.14
60258;BME280;46115;44.484;11.314;2023-03-15T10:33:30;99817.41;;;15.92;39.35
60258;BME280;46115;44.484;11.314;2023-03-15T10:37:33;99822.97;;;16.43;39.57
60258;BME280;46115;44.484;11.314;2023-03-15T10:41:39;99823.66;;;16.77;39.84
60258;BME280;46115;44.484;11.314;2023-03-15T10:45:45;99846.44;;;16.17;40.13
60258;BME280;46115;44.484;11.314;2023-03-15T10:49:49;99824.25;;;16.17;40.49
60258;BME280;46115;44.484;11.314;2023-03-15T10:54:00;99858.09;;;16.48;39.29
60258;BME280;46115;44.484;11.314;2023-03-15T10:58:18;99827.13;;;16.36;39.12
60258;BME280;46115;44.484;11.314;2023-03-15T11:02:24;99856.09;;;16.62;39.85
60258;BME280;46115;44.484;11.314;2023-03-15T11:06:27;99870.41;;;15.74;41.95
60258;BME280;46115;44.484;11.314;2023-03-15T11:10:33;99849.31;;;15.71;47.44
60258;BME280;46115;44.484;11.314;2023-03-15T11:14:38;99861.97;;;15.12;51.74
60258;BME280;46115;44.484;11.314;2023-03-15T11:18:47;99886.94;;;14.52;55.90
60258;BME280;46115;44.484;11.314;2023-03-15T11:22:50;99882.44;;;14.04;58.39
60258;BME280;46115;44.484;11.314;2023-03-15T11:26:54;99879.16;;;14.01;55.72
60258;BME280;46115;44.484;11.314;2023-03-15T11:30:59;99881.53;;;13.80;56.30
60258;BME280;46115;44.484;11.314;2023-03-15T11:35:09;99859.28;;;13.45;53.68
60258;BME280;46115;44.484;11.314;2023-03-15T11:39:23;99868.88;;;13.22;52.85
60258;BME280;46115;44.484;11.314;2023-03-15T11:43:32;99873.44;;;13.94;51.63
60258;BME280;46115;44.484;11.314;2023-03-15T11:47:42;99858.56;;;14.16;46.94
60258;BME280;46115;44.484;11.314;2023-03-15T11:51:49;99844.56;;;14.61;44.30
60258;BME280;46115;44.484;11.314;2023-03-15T11:55:55;99845.69;;;14.46;45.87
60258;BME280;46115;44.484;11.314;2023-03-15T12:04:41;99883.06;;;15.37;44.39
60258;BME280;46115;44.484;11.314;2023-03-15T12:08:48;99880.00;;;15.19;45.13
60258;BME280;46115;44.484;11.314;2023-03-15T12:12:57;99908.59;;;13.98;48.62
60258;BME280;46115;44.484;11.314;2023-03-15T12:21:37;99909.44;;;13.98;50.09
60258;BME280;46115;44.484;11.314;2023-03-15T12:25:50;99901.28;;;13.89;57.01
60258;BME280;46115;44.484;11.314;2023-03-15T12:29:58;99935.97;;;13.24;61.17
60258;BME280;46115;44.484;11.314;2023-03-15T12:34:03;99941.81;;;11.80;68.59
60258;BME280;46115;44.484;11.314;2023-03-15T12:38:11;99929.84;;;11.44;72.54
60258;BME280;46115;44.484;11.314;2023-03-15T12:47:09;99977.66;;;11.85;68.32
60258;BME280;46115;44.484;11.314;2023-03-15T12:51:41;99959.00;;;12.01;69.36
60258;BME280;46115;44.484;11.314;2023-03-15T12:55:44;99962.34;;;11.32;68.06
60258;BME280;46115;44.484;11.314;2023-03-15T12:59:49;99971.81;;;11.80;66.82
60258;BME280;46115;44.484;11.314;2023-03-15T13:03:55;99988.50;;;12.24;63.83
60258;BME280;46115;44.484;11.314;2023-03-15T13:08:06;99987.78;;;11.93;64.22
60258;BME280;46115;44.484;11.314;2023-03-15T13:12:12;99990.19;;;11.68;64.48
60258;BME280;46115;44.484;11.314;2023-03-15T13:16:25;99976.38;;;11.77;65.06
60258;BME280;46115;44.484;11.314;2023-03-15T13:20:40;99932.59;;;11.29;66.26
60258;BME280;46115;44.484;11.314;2023-03-15T13:24:44;99984.72;;;11.12;67.42
60258;BME280;46115;44.484;11.314;2023-03-15T13:28:58;99950.06;;;10.87;66.23
60258;BME280;46115;44.484;11.314;2023-03-15T13:37:27;99933.19;;;10.74;67.47
60258;BME280;46115;44.484;11.314;2023-03-15T13:41:30;99959.50;;;11.21;66.03
60258;BME280;46115;44.484;11.314;2023-03-15T13:45:36;99971.97;;;10.89;65.78
60258;BME280;46115;44.484;11.314;2023-03-15T13:49:38;99959.53;;;11.05;64.68
60258;BME280;46115;44.484;11.314;2023-03-15T13:53:41;99964.13;;;10.87;64.88
60258;BME280;46115;44.484;11.314;2023-03-15T13:57:44;99976.69;;;10.68;65.19
60258;BME280;46115;44.484;11.314;2023-03-15T14:01:48;99977.34;;;10.87;64.54
60258;BME280;46115;44.484;11.314;2023-03-15T14:05:56;99931.91;;;10.81;63.83
60258;BME280;46115;44.484;11.314;2023-03-15T14:10:18;99964.06;;;11.33;62.97
60258;BME280;46115;44.484;11.314;2023-03-15T14:14:24;99973.41;;;10.94;64.08
60258;BME280;46115;44.484;11.314;2023-03-15T14:18:30;99965.94;;;11.31;63.56
60258;BME280;46115;44.484;11.314;2023-03-15T14:22:34;99972.75;;;11.21;64.08
60258;BME280;46115;44.484;11.314;2023-03-15T14:26:38;99967.69;;;11.46;63.21
60258;BME280;46115;44.484;11.314;2023-03-15T14:30:50;99953.59;;;11.46;63.57
60258;BME280;46115;44.484;11.314;2023-03-15T14:34:59;99978.28;;;11.61;62.64
60258;BME280;46115;44.484;11.314;2023-03-15T14:39:02;99963.56;;;11.85;61.68
60258;BME280;46115;44.484;11.314;2023-03-15T14:43:08;99974.34;;;11.96;60.39
60258;BME280;46115;44.484;11.314;2023-03-15T14:47:13;99974.41;;;12.23;60.59
60258;BME280;46115;44.484;11.314;2023-03-15T14:51:18;99965.84;;;11.91;60.85
60258;BME280;46115;44.484;11.314;2023-03-15T14:55:23;99947.28;;;11.91;60.75
60258;BME280;46115;44.484;11.314;2023-03-15T14:59:30;99975.56;;;12.05;61.13
60258;BME280;46115;44.484;11.314;2023-03-15T15:03:34;99978.56;;;12.13;60.71
60258;BME280;46115;44.484;11.314;2023-03-15T15:07:39;99971.13;;;11.91;61.89
60258;BME280;46115;44.484;11.314;2023-03-15T15:11:41;99980.34;;;11.70;61.87
60258;BME280;46115;44.484;11.314;2023-03-15T15:15:45;99976.34;;;11.93;61.74
60258;BME280;46115;44.484;11.314;2023-03-15T15:19:47;99973.19;;;12.00;60.41
60258;BME280;46115;44.484;11.314;2023-03-15T15:23:49;99977.72;;;12.12;60.54
60258;BME280;46115;44.484;11.314;2023-03-15T15:27:52;99990.06;;;12.55;61.20
60258;BME280;46115;44.484;11.314;2023-03-15T15:31:55;99987.97;;;12.45;60.36
60258;BME280;46115;44.484;11.314;2023-03-15T15:35:57;99965.75;;;12.34;59.52
60258;BME280;46115;44.484;11.314;2023-03-15T15:40:00;99996.22;;;12.41;59.84
60258;BME280;46115;44.484;11.314;2023-03-15T15:44:02;99993.69;;;12.66;59.61
60258;BME280;46115;44.484;11.314;2023-03-15T15:48:06;100004.91;;;12.57;58.64
60258;BME280;46115;44.484;11.314;2023-03-15T15:52:10;100006.50;;;12.60;58.92
60258;BME280;46115;44.484;11.314;2023-03-15T15:56:13;99996.34;;;12.66;58.70
60258;BME280;46115;44.484;11.314;2023-03-15T16:00:18;100008.81;;;12.37;59.62
60258;BME280;46115;44.484;11.314;2023-03-15T16:04:22;100019.41;;;12.52;59.73
60258;BME280;46115;44.484;11.314;2023-03-15T16:08:24;100007.34;;;12.19;59.69
60258;BME280;46115;44.484;11.314;2023-03-15T16:12:27;100016.47;;;12.42;58.78
60258;BME280;46115;44.484;11.314;2023-03-15T16:16:29;100013.13;;;12.26;59.76
60258;BME280;46115;44.484;11.314;2023-03-15T16:20:33;99996.22;;;12.41;59.43
60258;BME280;46115;44.484;11.314;2023-03-15T16:24:35;100010.00;;;12.60;58.75
60258;BME280;46115;44.484;11.314;2023-03-15T16:28:39;100030.19;;;12.48;58.92
60258;BME280;46115;44.484;11.314;2023-03-15T16:32:41;100029.28;;;12.49;58.91
60258;BME280;46115;44.484;11.314;2023-03-15T16:36:45;100034.28;;;12.40;58.07
60258;BME280;46115;44.484;11.314;2023-03-15T16:40:49;100034.94;;;12.43;58.42
60258;BME280;46115;44.484;11.314;2023-03-15T16:44:52;100036.06;;;12.39;58.24
60258;BME280;46115;44.484;11.314;2023-03-15T16:48:55;100049.34;;;12.39;57.97
60258;BME280;46115;44.484;11.314;2023-03-15T16:53:00;100055.31;;;12.29;59.52
60258;BME280;46115;44.484;11.314;2023-03-15T16:57:11;100062.34;;;12.15;61.11
60258;BME280;46115;44.484;11.314;2023-03-15T17:01:15;100072.25;;;12.12;59.25
60258;BME280;46115;44.484;11.314;2023-03-15T17:05:18;100070.72;;;12.08;59.54
60258;BME280;46115;44.484;11.314;2023-03-15T17:09:22;100075.09;;;12.09;58.62
60258;BME280;46115;44.484;11.314;2023-03-15T17:13:27;100080.28;;;12.10;59.86
60258;BME280;46115;44.484;11.314;2023-03-15T17:17:31;100081.25;;;11.95;59.63
60258;BME280;46115;44.484;11.314;2023-03-15T17:21:36;100076.59;;;11.84;60.96
60258;BME280;46115;44.484;11.314;2023-03-15T17:25:40;100094.47;;;11.81;59.81
60258;BME280;46115;44.484;11.314;2023-03-15T17:29:42;100091.81;;;11.81;60.09
60258;BME280;46115;44.484;11.314;2023-03-15T17:33:44;100100.16;;;11.73;60.55
60258;BME280;46115;44.484;11.314;2023-03-15T17:37:47;100113.09;;;11.64;60.60
60258;BME280;46115;44.484;11.314;2023-03-15T17:41:51;100116.13;;;11.42;61.91
60258;BME280;46115;44.484;11.314;2023-03-15T17:45:53;100116.84;;;11.45;62.19
60258;BME280;46115;44.484;11.314;2023-03-15T17:49:55;100131.22;;;11.25;62.35
60258;BME280;46115;44.484;11.314;2023-03-15T17:53:58;100141.72;;;11.11;62.71
60258;BME280;46115;44.484;11.314;2023-03-15T23:06:08;100483.22;;;6.07;72.64
60258;BME280;46115;44.484;11.314;2023-03-15T23:10:11;100485.53;;;5.87;72.45
60258;BME280;46115;44.484;11.314;2023-03-15T23:14:14;100485.41;;;5.93;71.70
60258;BME280;46115;44.484;11.314;2023-03-15T23:18:16;100482.41;;;6.05;71.65
60258;BME280;46115;44.484;11.314;2023-03-15T23:22:20;100492.47;;;5.89;71.31
60258;BME280;46115;44.484;11.314;2023-03-15T23:26:23;100485.25;;;5.98;71.71
60258;BME280;46115;44.484;11.314;2023-03-15T23:30:26;100493.09;;;5.99;71.13
60258;BME280;46115;44.484;11.314;2023-03-15T23:34:32;100492.47;;;5.89;71.10
60258;BME280;46115;44.484;11.314;2023-03-15T23:38:35;100501.34;;;5.84;71.79
60258;BME280;46115;44.484;11.314;2023-03-15T23:42:38;100499.00;;;6.06;70.18
60258;BME280;46115;44.484;11.314;2023-03-15T23:46:40;100505.41;;;5.97;70.80
60258;BME280;46115;44.484;11.314;2023-03-15T23:50:42;100497.16;;;5.78;70.67
60258;BME280;46115;44.484;11.314;2023-03-15T23:54:46;100512.22;;;5.72;71.13
60258;BME280;46115;44.484;11.314;2023-03-15T23:58:48;100510.22;;;5.80;72.73
